Time;durP1;ratioP1;P1;durP2;ratioP2;P2;SDS_P1;SDS_P2;PMS_P1;PMS_P2;Temp;Humidity;BMP_temperature;BMP_pressure;BME280_temperature;BME280_humidity;BME280_pressure;Samples;Min_cycle;Max_cycle;Signal;HPM_P1;HPM_P2
2021/08/13 00:00:29;;;;;;;7.38;3.25;;;;;;;25.76;41.74;99990.59;5051490;28;20549;-50
2021/08/13 00:02:55;;;;;;;6.72;3.58;;;;;;;25.74;41.82;99980.00;5051846;28;20045;-49
2021/08/13 00:05:22;;;;;;;5.80;3.70;;;;;;;25.78;41.86;99983.38;5051535;28;20045;-49
2021/08/13 00:07:49;;;;;;;7.57;3.63;;;;;;;25.80;41.81;99984.16;5051299;28;20041;-49
2021/08/13 00:10:15;;;;;;;5.95;3.60;;;;;;;25.82;42.02;99984.91;5050788;28;20449;-49
2021/08/13 00:12:43;;;;;;;7.50;3.70;;;;;;;25.83;41.85;99992.00;5054019;28;20048;-49
2021/08/13 00:15:11;;;;;;;7.47;3.50;;;;;;;25.83;41.98;99990.16;5055056;28;20041;-49
2021/08/13 00:17:37;;;;;;;6.55;3.70;;;;;;;25.81;41.88;99988.56;5054299;28;20045;-50
2021/08/13 00:20:05;;;;;;;7.70;3.88;;;;;;;25.80;41.96;99994.81;5054811;28;20049;-50
2021/08/13 00:22:32;;;;;;;7.47;3.60;;;;;;;25.76;42.07;99982.59;5054953;28;20041;-49
2021/08/13 00:24:58;;;;;;;6.50;3.70;;;;;;;25.72;42.06;99982.75;5053647;28;20041;-49
2021/08/13 00:27:25;;;;;;;6.28;3.50;;;;;;;25.70;42.12;99979.31;5055038;28;20099;-49
2021/08/13 00:29:53;;;;;;;7.00;3.70;;;;;;;25.72;42.15;99977.41;5055031;28;20045;-49
2021/08/13 00:32:20;;;;;;;9.23;4.13;;;;;;;25.76;42.13;99987.94;5054440;28;20049;-50
2021/08/13 00:34:46;;;;;;;6.47;3.60;;;;;;;25.74;42.10;99978.22;5054993;28;20045;-49
2021/08/13 00:37:13;;;;;;;6.63;3.50;;;;;;;25.74;42.09;99980.91;5054013;28;20041;-50
2021/08/13 00:39:40;;;;;;;6.53;3.47;;;;;;;25.73;42.06;99979.16;5053993;28;20049;-49
2021/08/13 00:42:06;;;;;;;6.90;3.58;;;;;;;25.72;42.00;99982.75;5054359;28;20537;-50
2021/08/13 00:44:33;;;;;;;6.47;3.90;;;;;;;25.71;42.16;99978.38;5053986;28;20098;-50
2021/08/13 00:47:01;;;;;;;6.53;3.70;;;;;;;25.74;42.21;99983.56;5054158;28;20052;-49
2021/08/13 00:49:28;;;;;;;6.32;3.75;;;;;;;25.70;42.22;99979.31;5054523;28;20133;-49
2021/08/13 00:51:55;;;;;;;7.25;3.50;;;;;;;25.70;42.25;99979.31;5054290;28;20094;-49
2021/08/13 00:54:22;;;;;;;6.40;3.40;;;;;;;25.69;42.21;99982.94;5053879;28;20053;-51
2021/08/13 00:56:49;;;;;;;8.75;3.90;;;;;;;25.68;42.29;99988.38;5045107;28;20049;-50
2021/08/13 00:59:16;;;;;;;6.60;3.63;;;;;;;25.63;42.24;99991.31;5053888;28;20048;-49
2021/08/13 01:01:42;;;;;;;6.80;3.70;;;;;;;25.59;42.22;99987.09;5053921;28;20041;-50
2021/08/13 01:04:10;;;;;;;7.75;3.75;;;;;;;25.60;42.18;99994.13;5053963;28;20095;-50
2021/08/13 01:06:37;;;;;;;4.63;3.33;;;;;;;25.59;42.10;99989.78;5052795;28;20049;-49
2021/08/13 01:09:04;;;;;;;6.57;3.65;;;;;;;25.62;42.17;99988.72;5053567;28;20049;-49
2021/08/13 01:11:38;;;;;;;8.52;3.67;;;;;;;25.63;42.19;99993.97;5053735;28;20553;-49
2021/08/13 01:14:06;;;;;;;;;;;;;;;25.63;42.53;99988.66;5054933;28;20041;-49
2021/08/13 01:16:34;;;;;;;5.63;3.35;;;;;;;25.64;42.14;99990.34;5052681;28;20379;-49
2021/08/13 01:19:03;;;;;;;7.72;3.70;;;;;;;25.64;42.13;99995.69;5053766;28;20041;-49
2021/08/13 01:21:38;;;;;;;6.93;3.78;;;;;;;25.63;42.15;99995.75;5053884;28;20072;-50
2021/08/13 01:24:07;;;;;;;7.00;3.88;;;;;;;25.58;42.29;100000.53;5052792;28;20432;-49
2021/08/13 01:26:37;;;;;;;6.80;3.67;;;;;;;25.55;42.23;99998.88;5053091;28;20045;-49
2021/08/13 01:29:08;;;;;;;6.43;3.50;;;;;;;25.57;42.24;100004.13;5054135;28;20049;-49
2021/08/13 01:31:39;;;;;;;7.38;3.90;;;;;;;25.57;42.30;99998.78;5053262;28;20103;-50
2021/08/13 01:34:08;;;;;;;5.82;3.45;;;;;;;25.59;42.25;99996.88;5053504;28;20103;-51
2021/08/13 01:36:34;;;;;;;6.03;3.60;;;;;;;25.58;42.28;99996.03;5053539;28;20500;-49
2021/08/13 01:39:02;;;;;;;6.45;3.55;;;;;;;25.60;42.31;99999.47;5052237;28;20069;-49
2021/08/13 01:41:30;;;;;;;6.78;3.85;;;;;;;25.57;42.40;99999.66;5053481;28;20041;-49
2021/08/13 01:43:57;;;;;;;6.75;3.50;;;;;;;25.59;42.28;99999.56;5053240;28;20049;-49
2021/08/13 01:46:23;;;;;;;9.00;3.70;;;;;;;25.59;42.23;99999.56;5053524;28;20102;-50
2021/08/13 01:48:50;;;;;;;7.55;3.60;;;;;;;25.59;42.20;99997.78;5053332;28;20052;-49
2021/08/13 01:51:18;;;;;;;9.18;3.97;;;;;;;25.59;42.34;99996.88;5053167;28;20041;-49
2021/08/13 01:53:46;;;;;;;6.88;3.63;;;;;;;25.58;42.32;99995.19;5053703;28;20190;-49
2021/08/13 01:56:13;;;;;;;7.28;3.60;;;;;;;25.57;42.49;100007.69;5053518;28;20052;-50
2021/08/13 01:58:40;;;;;;;6.30;3.95;;;;;;;25.48;42.51;99997.50;5053468;28;20049;-49
2021/08/13 02:01:06;;;;;;;6.28;3.53;;;;;;;25.43;42.35;99997.75;5053317;28;20045;-50
2021/08/13 02:03:33;;;;;;;9.10;4.07;;;;;;;25.45;42.45;100005.66;5052807;28;20457;-49
2021/08/13 02:06:00;;;;;;;5.28;3.42;;;;;;;25.45;42.67;99997.66;5052410;28;20049;-50
2021/08/13 02:08:28;;;;;;;5.75;3.42;;;;;;;25.43;42.60;100002.22;5052949;28;20453;-50
2021/08/13 02:10:56;;;;;;;8.50;3.90;;;;;;;25.39;42.48;100004.19;5052230;28;20450;-49
2021/08/13 02:13:23;;;;;;;6.68;3.97;;;;;;;25.39;42.49;99996.19;5052722;28;20041;-50
2021/08/13 02:15:51;;;;;;;8.38;4.00;;;;;;;25.40;42.37;99994.41;5052764;28;20091;-50
2021/08/13 02:18:20;;;;;;;7.80;3.63;;;;;;;25.35;42.78;99995.50;5053004;28;20052;-49
2021/08/13 02:20:46;;;;;;;6.80;3.72;;;;;;;25.37;42.39;99995.41;5052948;28;20098;-49
2021/08/13 02:23:15;;;;;;;9.90;3.95;;;;;;;25.38;42.38;99993.59;5051425;28;20037;-50
2021/08/13 02:25:43;;;;;;;7.90;3.88;;;;;;;25.39;42.54;99996.19;5052202;28;20055;-49
2021/08/13 02:28:10;;;;;;;7.05;3.58;;;;;;;25.35;42.49;99992.84;5052844;28;20099;-50
2021/08/13 02:30:36;;;;;;;8.45;4.00;;;;;;;25.35;42.57;99998.16;5052281;28;20041;-50
2021/08/13 02:33:03;;;;;;;8.43;3.88;;;;;;;25.30;42.50;99996.69;5052550;28;20041;-49
2021/08/13 02:35:30;;;;;;;9.25;3.80;;;;;;;25.21;42.44;100006.03;5051317;28;20095;-50
2021/08/13 02:37:59;;;;;;;7.13;3.83;;;;;;;25.17;42.58;100007.16;5051887;28;20049;-50
2021/08/13 02:40:28;;;;;;;7.28;4.25;;;;;;;25.09;42.73;100006.72;5052331;28;20118;-49
2021/08/13 02:42:57;;;;;;;6.50;3.92;;;;;;;25.05;42.76;100007.81;5052434;28;20189;-49
2021/08/13 02:45:24;;;;;;;6.28;3.40;;;;;;;25.03;42.79;100012.34;5051896;28;20474;-50
2021/08/13 02:47:54;;;;;;;9.25;3.80;;;;;;;25.03;42.86;100013.25;5052358;28;20091;-50
2021/08/13 02:50:21;;;;;;;6.43;3.60;;;;;;;25.07;42.80;100011.28;5052408;28;20049;-50
2021/08/13 02:52:49;;;;;;;7.43;3.63;;;;;;;25.05;42.92;100018.50;5051323;28;20545;-49
2021/08/13 02:55:16;;;;;;;7.53;3.75;;;;;;;25.05;42.71;100008.69;5052373;28;20099;-49
2021/08/13 02:57:43;;;;;;;8.63;4.05;;;;;;;25.02;42.81;100018.66;5051756;28;20047;-49
2021/08/13 03:00:13;;;;;;;8.05;4.15;;;;;;;25.03;42.95;100012.34;5051896;28;20048;-50
2021/08/13 03:02:39;;;;;;;8.65;4.00;;;;;;;25.05;42.78;100011.34;5052129;28;20094;-49
2021/08/13 03:05:07;;;;;;;6.55;3.60;;;;;;;25.06;42.64;100020.19;5050438;28;20650;-49
2021/08/13 03:07:34;;;;;;;6.95;3.55;;;;;;;25.04;42.82;100014.94;5052048;28;20053;-50
2021/08/13 03:10:00;;;;;;;7.00;3.63;;;;;;;25.03;42.70;100023.00;5052277;28;20049;-50
2021/08/13 03:12:27;;;;;;;7.57;4.15;;;;;;;25.05;42.71;100013.16;5052357;28;20099;-50
2021/08/13 03:14:54;;;;;;;6.72;3.72;;;;;;;25.04;42.81;100017.59;5047932;28;20082;-51
2021/08/13 03:17:22;;;;;;;6.85;4.00;;;;;;;25.08;42.95;100018.31;5047860;28;20045;-51
2021/08/13 03:19:49;;;;;;;8.75;3.72;;;;;;;25.06;42.85;100020.19;5050639;28;20052;-49
2021/08/13 03:22:16;;;;;;;9.43;3.95;;;;;;;25.05;42.69;100018.50;5051216;28;20045;-49
2021/08/13 03:24:43;;;;;;;7.35;3.72;;;;;;;25.03;42.74;100015.91;5050989;28;20063;-51
2021/08/13 03:27:09;;;;;;;7.38;3.78;;;;;;;25.06;42.72;100020.19;5051120;28;20049;-49
2021/08/13 03:29:36;;;;;;;8.32;3.80;;;;;;;25.08;42.75;100012.97;5031976;28;20467;-51
2021/08/13 03:32:04;;;;;;;6.88;3.60;;;;;;;25.09;42.86;100020.91;5049029;28;20049;-49
2021/08/13 03:34:32;;;;;;;8.35;3.80;;;;;;;25.12;42.90;100022.53;5051311;28;20523;-50
2021/08/13 03:37:00;;;;;;;6.68;3.90;;;;;;;25.14;42.65;100018.88;5051209;28;20499;-51
2021/08/13 03:39:27;;;;;;;11.00;4.00;;;;;;;25.11;42.88;100026.16;5051773;28;20480;-51
2021/08/13 03:41:54;;;;;;;11.70;4.40;;;;;;;25.06;42.93;100023.72;5051580;28;20100;-51
2021/08/13 03:44:21;;;;;;;9.10;3.97;;;;;;;25.01;42.83;100022.25;5051456;28;20095;-52
2021/08/13 03:46:47;;;;;;;9.20;4.00;;;;;;;25.02;43.00;100013.31;5052222;28;20553;-51
2021/08/13 03:49:14;;;;;;;7.20;3.50;;;;;;;25.05;42.67;100013.16;5055988;28;20041;-52
2021/08/13 03:51:42;;;;;;;8.68;3.95;;;;;;;25.02;42.86;100013.31;5055588;28;20479;-52
2021/08/13 03:54:09;;;;;;;9.23;3.97;;;;;;;25.03;42.72;100015.00;5055306;28;20462;-50
2021/08/13 03:56:36;;;;;;;9.15;4.55;;;;;;;25.04;42.96;100012.28;5055052;28;20049;-47
2021/08/13 03:59:03;;;;;;;9.02;3.97;;;;;;;25.04;43.08;99998.09;5054963;28;20045;-43
2021/08/13 04:01:30;;;;;;;9.68;3.72;;;;;;;25.04;43.08;100000.75;5055580;28;20380;-42
2021/08/13 04:03:57;;;;;;;15.15;4.30;;;;;;;25.01;43.28;99999.13;5055403;28;20049;-42
2021/08/13 04:06:24;;;;;;;8.18;4.03;;;;;;;25.01;43.24;100001.78;5054911;28;20166;-42
2021/08/13 04:08:52;;;;;;;17.50;4.57;;;;;;;25.03;43.28;99999.03;5055279;28;20114;-41
2021/08/13 04:11:19;;;;;;;8.77;4.30;;;;;;;24.99;43.50;99995.69;5055338;28;20143;-41
2021/08/13 04:13:45;;;;;;;8.50;3.70;;;;;;;25.00;43.45;99997.38;5054113;28;20088;-42
2021/08/13 04:16:12;;;;;;;9.82;3.95;;;;;;;25.03;43.31;100005.25;5054890;28;20384;-47
2021/08/13 04:18:39;;;;;;;8.77;3.70;;;;;;;25.00;43.58;99993.88;5055128;28;20102;-46
2021/08/13 04:21:05;;;;;;;11.68;4.03;;;;;;;24.98;43.68;99998.44;5054960;28;20403;-47
2021/08/13 04:23:32;;;;;;;9.82;3.67;;;;;;;24.99;43.57;99997.47;5055179;28;20049;-46
2021/08/13 04:26:00;;;;;;;9.05;4.10;;;;;;;24.97;43.69;100002.91;5054232;28;20044;-45
2021/08/13 04:28:27;;;;;;;7.15;4.00;;;;;;;25.00;43.73;100007.19;5055168;28;20170;-45
2021/08/13 04:30:54;;;;;;;7.28;4.03;;;;;;;24.96;43.78;100007.34;5054614;28;20086;-47
2021/08/13 04:33:21;;;;;;;12.10;4.10;;;;;;;24.99;43.77;100005.47;5054883;28;20045;-45
2021/08/13 04:35:48;;;;;;;16.20;4.65;;;;;;;25.00;43.91;100015.19;5054592;28;20048;-47
2021/08/13 04:38:14;;;;;;;14.48;4.65;;;;;;;25.05;43.60;100018.50;5054810;28;20049;-42
2021/08/13 04:40:41;;;;;;;10.30;4.57;;;;;;;25.07;43.50;100019.28;5053811;28;20045;-42
2021/08/13 04:43:09;;;;;;;12.68;4.68;;;;;;;25.06;43.42;100015.72;5052002;28;20041;-42
2021/08/13 04:45:36;;;;;;;11.57;4.25;;;;;;;25.06;43.38;100022.88;5054763;28;20079;-42
2021/08/13 04:48:03;;;;;;;11.95;3.95;;;;;;;25.08;43.26;100035.16;5054313;28;20045;-42
2021/08/13 04:50:29;;;;;;;11.63;4.40;;;;;;;25.07;43.14;100032.59;5054490;28;20049;-42
2021/08/13 04:52:56;;;;;;;15.13;5.07;;;;;;;25.06;43.24;100033.53;5053976;28;20049;-42
2021/08/13 04:55:24;;;;;;;11.30;4.47;;;;;;;25.03;43.31;100036.34;5054569;28;20049;-42
2021/08/13 04:57:50;;;;;;;8.80;4.10;;;;;;;25.05;43.13;100032.69;5052890;28;20041;-42
2021/08/13 05:00:19;;;;;;;12.07;4.43;;;;;;;25.05;43.17;100042.50;5054018;28;20037;-42
2021/08/13 05:02:46;;;;;;;11.73;4.35;;;;;;;25.01;43.44;100039.13;5054357;28;20111;-42
2021/08/13 05:05:12;;;;;;;8.82;4.22;;;;;;;25.04;42.97;100044.28;5054223;28;20037;-42
2021/08/13 05:07:39;;;;;;;11.38;4.03;;;;;;;25.02;43.15;100045.31;5053378;28;20110;-42
2021/08/13 05:10:07;;;;;;;10.65;4.85;;;;;;;25.04;43.19;100038.09;5053777;28;20036;-42
2021/08/13 05:12:33;;;;;;;9.27;4.60;;;;;;;25.01;43.17;100043.56;5054132;28;20457;-42
2021/08/13 05:15:00;;;;;;;9.68;4.38;;;;;;;25.01;43.12;100040.91;5053300;28;20549;-42
2021/08/13 05:17:28;;;;;;;8.73;4.22;;;;;;;24.96;43.17;100042.00;5045015;28;20174;-43
2021/08/13 05:19:55;;;;;;;8.38;4.28;;;;;;;24.98;43.12;100035.75;5054345;28;20114;-42
2021/08/13 05:22:22;;;;;;;9.60;3.90;;;;;;;24.99;43.06;100029.47;5053035;28;20126;-42
2021/08/13 05:24:49;;;;;;;10.50;4.35;;;;;;;24.93;43.15;100028.88;5053053;28;20091;-42
2021/08/13 05:27:15;;;;;;;11.80;4.60;;;;;;;24.95;43.41;100018.97;5053791;28;20049;-42
2021/08/13 05:29:42;;;;;;;10.05;4.22;;;;;;;24.95;43.53;100018.97;5052183;28;20041;-42
2021/08/13 05:32:09;;;;;;;11.40;4.30;;;;;;;24.98;43.42;100017.09;5050645;28;20549;-42
2021/08/13 05:34:37;;;;;;;11.00;4.93;;;;;;;24.94;43.72;100019.91;5053065;28;20583;-42
2021/08/13 05:37:04;;;;;;;8.85;4.65;;;;;;;24.93;43.64;100026.19;5052932;28;20491;-42
2021/08/13 05:39:30;;;;;;;10.77;4.80;;;;;;;24.91;43.72;100024.53;5052736;28;20048;-42
2021/08/13 05:41:57;;;;;;;9.63;4.40;;;;;;;24.93;43.81;100017.31;5050821;28;20491;-42
2021/08/13 05:44:24;;;;;;;8.43;4.38;;;;;;;24.99;43.75;100021.47;5052657;28;20049;-42
2021/08/13 05:46:51;;;;;;;8.88;4.57;;;;;;;25.00;43.76;100021.38;5053427;28;20177;-43
2021/08/13 05:49:17;;;;;;;9.38;4.28;;;;;;;25.01;43.53;100019.56;5053036;28;20041;-43
2021/08/13 05:51:45;;;;;;;7.85;4.05;;;;;;;25.02;43.63;100029.31;5053277;28;20049;-43
2021/08/13 05:54:12;;;;;;;10.07;4.57;;;;;;;25.02;43.63;100021.31;5051312;28;20132;-43
2021/08/13 05:56:39;;;;;;;7.97;4.45;;;;;;;25.06;43.62;100025.53;5052931;28;20487;-43
2021/08/13 05:59:07;;;;;;;7.75;4.28;;;;;;;25.10;43.43;100027.09;5051846;28;20045;-43
2021/08/13 06:01:33;;;;;;;9.85;4.40;;;;;;;25.11;43.40;100028.81;5052906;28;20494;-43
2021/08/13 06:04:00;;;;;;;10.32;4.20;;;;;;;25.13;43.42;100026.94;5052544;28;20053;-43
2021/08/13 06:06:27;;;;;;;8.43;4.35;;;;;;;25.17;43.39;100027.63;5052404;28;20045;-43
2021/08/13 06:08:55;;;;;;;10.52;4.50;;;;;;;25.17;43.66;100028.50;5053085;28;20228;-43
2021/08/13 06:11:22;;;;;;;8.35;4.45;;;;;;;25.16;43.45;100026.75;5052956;28;20106;-43
2021/08/13 06:13:49;;;;;;;11.55;4.60;;;;;;;25.19;43.52;100037.25;5046658;28;20041;-43
2021/08/13 06:16:18;;;;;;;8.77;4.50;;;;;;;25.24;43.64;100034.38;5048787;28;20454;-43
2021/08/13 06:18:45;;;;;;;12.50;4.60;;;;;;;25.29;43.34;100040.34;5048503;28;20041;-43
2021/08/13 06:21:11;;;;;;;10.18;4.65;;;;;;;25.29;43.50;100041.19;5049817;28;20639;-43
2021/08/13 06:23:38;;;;;;;12.13;5.10;;;;;;;25.28;43.45;100042.16;5053045;28;20044;-43
2021/08/13 06:26:06;;;;;;;14.40;4.85;;;;;;;25.30;43.54;100029.59;5051850;28;20548;-43
2021/08/13 06:28:33;;;;;;;15.65;4.90;;;;;;;25.31;43.52;100041.97;5051918;28;20488;-43
2021/08/13 06:30:59;;;;;;;12.85;4.85;;;;;;;25.36;43.40;100047.06;5052568;28;20103;-43
2021/08/13 06:33:26;;;;;;;9.60;4.50;;;;;;;25.41;43.22;100052.13;5052401;28;20544;-43
2021/08/13 06:35:53;;;;;;;10.48;4.30;;;;;;;25.44;43.32;100054.66;5052714;28;20104;-43
2021/08/13 06:38:20;;;;;;;9.90;5.20;;;;;;;25.40;43.51;100045.94;5052387;28;20548;-44
2021/08/13 06:40:46;;;;;;;11.00;4.22;;;;;;;25.44;43.29;100042.16;5051764;28;20115;-44
2021/08/13 06:43:14;;;;;;;10.82;3.97;;;;;;;25.50;43.36;100049.81;5050984;28;20120;-43
2021/08/13 06:45:41;;;;;;;8.93;4.53;;;;;;;25.55;43.37;100046.91;5052147;28;20114;-44
2021/08/13 06:48:08;;;;;;;10.43;4.22;;;;;;;25.62;43.33;100044.75;5052169;28;20049;-43
2021/08/13 06:50:35;;;;;;;16.42;5.50;;;;;;;25.58;43.60;100048.56;5049489;28;20106;-43
2021/08/13 06:53:02;;;;;;;9.75;4.47;;;;;;;25.57;43.59;100050.38;5042893;28;20045;-43
2021/08/13 06:55:29;;;;;;;12.45;4.65;;;;;;;25.63;43.49;100052.69;5052526;28;20045;-43
2021/08/13 06:57:56;;;;;;;15.90;4.82;;;;;;;25.68;43.49;100049.75;5052325;28;20123;-43
2021/08/13 07:00:24;;;;;;;12.43;4.60;;;;;;;25.71;43.55;100046.94;5052014;28;20044;-43
2021/08/13 07:02:51;;;;;;;15.68;4.82;;;;;;;25.76;43.44;100057.34;5052299;28;20063;-43
2021/08/13 07:05:17;;;;;;;14.48;5.10;;;;;;;25.81;43.63;100049.94;5051269;28;20504;-44
2021/08/13 07:07:44;;;;;;;13.38;4.78;;;;;;;25.83;43.44;100059.56;5051110;28;20052;-43
2021/08/13 07:10:11;;;;;;;13.75;4.50;;;;;;;25.88;43.23;100059.31;5057177;28;20052;-43
2021/08/13 07:12:38;;;;;;;11.82;4.82;;;;;;;25.92;43.36;100061.78;5051746;28;20550;-43
2021/08/13 07:15:06;;;;;;;10.02;4.43;;;;;;;25.97;43.32;100060.66;5052208;28;20098;-43
2021/08/13 07:17:34;;;;;;;11.48;4.95;;;;;;;26.00;43.25;100058.66;5052280;28;20118;-43
2021/08/13 07:20:01;;;;;;;13.85;5.03;;;;;;;26.02;43.44;100062.09;5050380;28;20640;-43
2021/08/13 07:22:28;;;;;;;18.77;5.72;;;;;;;26.04;43.51;100068.22;5043038;28;20109;-43
2021/08/13 07:24:55;;;;;;;19.58;4.95;;;;;;;26.09;43.65;100060.81;5043245;28;20049;-43
2021/08/13 07:27:21;;;;;;;10.50;4.70;;;;;;;26.15;43.57;100053.38;5055801;28;20462;-43
2021/08/13 07:29:48;;;;;;;9.73;4.78;;;;;;;26.20;43.26;100051.31;5055007;28;20503;-43
2021/08/13 07:32:15;;;;;;;12.02;4.72;;;;;;;26.25;42.94;100054.56;5053187;28;20042;-43
2021/08/13 07:34:43;;;;;;;17.70;5.57;;;;;;;26.28;43.07;100057.91;5044891;28;20102;-43
2021/08/13 07:37:10;;;;;;;17.60;6.38;;;;;;;26.30;43.09;100055.16;5043242;28;20045;-43
2021/08/13 07:39:36;;;;;;;13.90;5.78;;;;;;;26.24;42.94;100061.72;5049681;28;20107;-43
2021/08/13 07:42:04;;;;;;;11.73;5.97;;;;;;;26.32;42.75;100055.94;5043699;28;20100;-43
2021/08/13 07:44:30;;;;;;;20.88;7.63;;;;;;;26.27;43.18;100052.69;5046261;28;20041;-43
2021/08/13 07:46:57;;;;;;;15.75;6.35;;;;;;;26.32;42.90;100046.09;5048827;28;20705;-43
2021/08/13 07:49:24;;;;;;;15.18;5.72;;;;;;;26.39;42.66;100051.97;5045474;28;20049;-43
2021/08/13 07:51:52;;;;;;;14.02;5.45;;;;;;;26.44;42.59;100049.88;5048071;28;20068;-43
2021/08/13 07:54:18;;;;;;;14.23;5.50;;;;;;;26.48;42.46;100045.19;5046056;28;20099;-44
2021/08/13 07:56:45;;;;;;;27.42;6.05;;;;;;;26.50;42.42;100049.53;5051011;28;20045;-43
2021/08/13 07:59:12;;;;;;;15.63;5.72;;;;;;;26.55;42.46;100053.72;5051493;28;20049;-43
2021/08/13 08:01:39;;;;;;;14.13;5.00;;;;;;;26.58;42.13;100054.41;5045703;28;20049;-47
2021/08/13 08:04:05;;;;;;;12.93;5.03;;;;;;;26.63;41.66;100054.16;5046566;28;20045;-43
2021/08/13 08:06:32;;;;;;;10.07;5.03;;;;;;;26.66;41.36;100064.69;5050126;28;20045;-43
2021/08/13 08:09:00;;;;;;;22.27;7.72;;;;;;;26.63;41.58;100055.03;5048928;28;20454;-44
2021/08/13 08:11:27;;;;;;;18.83;6.22;;;;;;;26.69;41.69;100054.66;5053398;28;20045;-44
2021/08/13 08:13:54;;;;;;;23.10;6.80;;;;;;;26.72;41.71;100056.28;5048781;28;20045;-44
2021/08/13 08:16:20;;;;;;;18.38;6.95;;;;;;;26.74;41.74;100058.88;5054067;28;20041;-44
2021/08/13 08:18:47;;;;;;;18.02;6.50;;;;;;;26.79;41.86;100064.78;5054974;28;20458;-44
2021/08/13 08:21:14;;;;;;;14.02;5.43;;;;;;;26.79;41.50;100054.94;5054374;28;20049;-41
2021/08/13 08:23:40;;;;;;;15.07;6.00;;;;;;;26.76;41.70;100060.50;5052979;28;20041;-44
2021/08/13 08:26:09;;;;;;;17.08;5.97;;;;;;;26.81;41.53;100057.53;5038228;28;20054;-46
2021/08/13 08:28:40;;;;;;;16.85;6.13;;;;;;;26.84;41.92;100058.22;5033130;28;20112;-44
2021/08/13 08:31:07;;;;;;;15.55;5.78;;;;;;;26.89;41.61;100065.97;5033350;28;20432;-43
2021/08/13 08:33:34;;;;;;;13.52;5.72;;;;;;;26.90;41.59;100065.00;5034562;28;20099;-43
2021/08/13 08:36:01;;;;;;;14.27;5.85;;;;;;;26.91;41.60;100058.72;5033940;28;20045;-43
2021/08/13 08:38:27;;;;;;;14.07;5.80;;;;;;;26.93;41.31;100064.84;5034417;28;20558;-43
2021/08/13 08:40:54;;;;;;;12.07;5.20;;;;;;;26.89;41.04;100064.16;5034567;28;20107;-43
2021/08/13 08:43:22;;;;;;;10.52;5.53;;;;;;;26.81;40.61;100062.88;5034818;28;20050;-43
2021/08/13 08:45:49;;;;;;;14.45;5.20;;;;;;;26.86;41.17;100067.00;5034803;28;20095;-43
2021/08/13 08:48:16;;;;;;;14.20;5.60;;;;;;;26.90;41.13;100065.00;5034539;28;20106;-43
2021/08/13 08:50:43;;;;;;;10.60;5.30;;;;;;;26.94;41.14;100071.88;5034981;28;20140;-44
2021/08/13 08:53:13;;;;;;;13.20;5.15;;;;;;;26.98;41.11;100069.91;5035020;28;20060;-44
2021/08/13 08:55:40;;;;;;;9.73;4.80;;;;;;;27.02;40.96;100066.06;5033981;28;20049;-43
2021/08/13 08:58:07;;;;;;;9.88;5.18;;;;;;;27.02;40.77;100066.94;5034249;28;20476;-44
2021/08/13 09:00:35;;;;;;;13.77;4.63;;;;;;;27.03;40.69;100062.47;5034252;28;20057;-43
2021/08/13 09:03:01;;;;;;;13.10;5.15;;;;;;;27.05;40.94;100063.22;5034401;28;20049;-43
2021/08/13 09:05:28;;;;;;;9.57;4.65;;;;;;;27.05;40.70;100055.19;5034561;28;20099;-43
2021/08/13 09:07:55;;;;;;;9.07;4.70;;;;;;;27.08;41.04;100061.22;5034167;28;20103;-43
2021/08/13 09:10:21;;;;;;;9.77;4.68;;;;;;;27.10;40.53;100066.47;5034621;28;20041;-43
2021/08/13 09:12:50;;;;;;;7.15;4.47;;;;;;;27.07;38.71;100070.19;5034039;28;20049;-43
2021/08/13 09:15:30;;;;;;;8.10;4.45;;;;;;;27.11;38.57;100068.19;5034450;28;20513;-43
2021/08/13 09:18:18;;;;;;;10.18;4.85;;;;;;;27.13;39.13;100084.16;5034349;28;20095;-43
2021/08/13 09:20:47;;;;;;;7.70;4.10;;;;;;;26.91;38.17;100077.44;5034348;28;20120;-43
2021/08/13 09:23:28;;;;;;;8.27;4.20;;;;;;;26.98;38.42;100073.41;5033958;28;20050;-43
2021/08/13 09:25:56;;;;;;;6.68;3.90;;;;;;;27.06;39.31;100067.59;5034164;28;20454;-43
2021/08/13 09:28:40;;;;;;;11.05;4.05;;;;;;;27.10;39.18;100061.09;5034009;28;20057;-42
2021/08/13 09:31:11;;;;;;;7.43;4.10;;;;;;;27.15;39.39;100066.19;5033822;28;20046;-43
2021/08/13 09:33:39;;;;;;;8.95;4.65;;;;;;;27.16;39.29;100063.44;5034041;28;20111;-43
2021/08/13 09:36:06;;;;;;;9.40;4.88;;;;;;;27.13;38.01;100063.59;5033956;28;20060;-43
2021/08/13 09:38:33;;;;;;;7.32;4.00;;;;;;;27.09;38.94;100057.59;5033721;28;20057;-43
2021/08/13 09:41:06;;;;;;;7.07;4.40;;;;;;;27.13;38.94;100060.94;5033479;28;20053;-43
2021/08/13 09:43:32;;;;;;;7.10;3.80;;;;;;;27.16;39.15;100060.75;5033941;28;20041;-43
2021/08/13 09:46:06;;;;;;;9.02;4.20;;;;;;;27.21;38.72;100060.47;5033201;28;20045;-43
2021/08/13 09:48:33;;;;;;;6.93;4.03;;;;;;;27.23;38.99;100047.84;5033378;28;20049;-43
2021/08/13 09:51:01;;;;;;;10.60;4.90;;;;;;;27.25;39.03;100054.84;5033571;28;20042;-44
2021/08/13 09:53:27;;;;;;;10.63;5.38;;;;;;;27.24;38.95;100047.78;5033582;28;20060;-43
2021/08/13 09:55:54;;;;;;;9.85;4.90;;;;;;;27.27;39.10;100044.91;5033354;28;20051;-43
2021/08/13 09:58:25;;;;;;;10.73;5.07;;;;;;;27.28;38.93;100045.78;5033625;28;20099;-43
2021/08/13 10:00:51;;;;;;;9.32;4.93;;;;;;;27.30;39.26;100043.88;5033524;28;20052;-43
2021/08/13 10:03:18;;;;;;;11.88;5.57;;;;;;;27.30;39.36;100044.72;5033299;28;20542;-43
2021/08/13 10:05:45;;;;;;;10.07;5.55;;;;;;;27.33;39.25;100042.81;5033600;28;20045;-43
2021/08/13 10:08:13;;;;;;;11.70;5.53;;;;;;;27.33;38.96;100045.50;5033192;28;20136;-43
2021/08/13 10:10:41;;;;;;;10.10;5.63;;;;;;;27.33;39.08;100045.50;5033149;28;20045;-43
2021/08/13 10:13:08;;;;;;;15.23;6.15;;;;;;;27.37;38.96;100044.34;5033430;28;20099;-43
2021/08/13 10:15:36;;;;;;;10.52;5.35;;;;;;;27.37;39.13;100044.34;5033041;28;20561;-43
2021/08/13 10:18:04;;;;;;;12.63;5.72;;;;;;;27.39;39.24;100039.75;5033417;28;20053;-43
2021/08/13 10:20:32;;;;;;;10.05;5.00;;;;;;;27.39;39.29;100042.41;5033332;28;20055;-43
2021/08/13 10:22:59;;;;;;;13.10;6.45;;;;;;;27.38;39.46;100041.56;5033472;28;20081;-43
2021/08/13 10:25:27;;;;;;;11.10;5.88;;;;;;;27.39;39.50;100042.41;5032792;28;20385;-43
2021/08/13 10:27:54;;;;;;;11.40;5.20;;;;;;;27.40;39.20;100049.50;5032923;28;20054;-43
2021/08/13 10:30:21;;;;;;;11.23;5.93;;;;;;;27.41;39.34;100040.50;5032685;28;20045;-43
2021/08/13 10:32:48;;;;;;;11.52;5.75;;;;;;;27.42;39.58;100036.88;5032961;28;20054;-43
2021/08/13 10:35:15;;;;;;;10.48;5.43;;;;;;;27.42;39.14;100036.88;5033021;28;20143;-43
2021/08/13 10:37:42;;;;;;;11.82;5.85;;;;;;;27.41;37.01;100035.16;5032598;28;20045;-43
2021/08/13 10:40:10;;;;;;;9.60;4.80;;;;;;;27.43;38.63;100030.56;5032570;28;20462;-43
2021/08/13 10:42:40;;;;;;;10.70;5.30;;;;;;;27.43;38.89;100034.13;5032445;28;20045;-43
2021/08/13 10:45:08;;;;;;;11.27;5.43;;;;;;;27.44;39.30;100040.31;5032535;28;20045;-43
2021/08/13 10:47:37;;;;;;;11.95;5.63;;;;;;;27.43;38.75;100034.13;5032644;28;20046;-43
2021/08/13 10:50:04;;;;;;;11.65;5.32;;;;;;;27.46;38.87;100033.06;5032430;28;20053;-43
2021/08/13 10:52:35;;;;;;;10.43;5.68;;;;;;;27.45;38.73;100026.84;5032614;28;20045;-44
2021/08/13 10:55:01;;;;;;;9.65;5.07;;;;;;;27.45;38.97;100021.50;5032751;28;20444;-44
2021/08/13 10:57:55;;;;;;;10.25;5.18;;;;;;;27.43;37.08;100035.91;5031531;28;20041;-44
2021/08/13 11:00:22;;;;;;;11.43;5.30;;;;;;;27.46;38.47;100041.09;5032781;28;20076;-43
2021/08/13 11:03:17;;;;;;;11.48;5.93;;;;;;;27.47;38.79;100029.41;5032632;28;20385;-44
2021/08/13 11:05:50;;;;;;;10.00;5.53;;;;;;;27.47;38.69;100024.06;5032587;28;20055;-43
2021/08/13 11:08:17;;;;;;;10.18;5.10;;;;;;;27.47;39.09;100030.28;5032505;28;20059;-43
2021/08/13 11:10:59;;;;;;;12.55;5.70;;;;;;;27.48;38.73;100021.28;5032213;28;20554;-43
2021/08/13 11:13:27;;;;;;;10.93;5.57;;;;;;;27.49;38.72;100024.81;5032381;28;20050;-43
2021/08/13 11:15:54;;;;;;;12.10;5.78;;;;;;;27.47;38.25;100018.69;5032055;28;20045;-44
2021/08/13 11:18:28;;;;;;;11.25;5.35;;;;;;;27.44;38.71;100014.41;5032010;28;20056;-43
2021/08/13 11:20:55;;;;;;;10.07;5.07;;;;;;;27.46;38.68;100011.66;5031972;28;20084;-43
2021/08/13 11:23:22;;;;;;;10.52;5.40;;;;;;;27.48;38.82;100017.75;5031970;28;20091;-43
2021/08/13 11:25:49;;;;;;;11.52;5.60;;;;;;;27.49;38.94;100011.44;5030751;28;20108;-43